Time;durP1;ratioP1;P1;durP2;ratioP2;P2;SDS_P1;SDS_P2;PMS_P1;PMS_P2;Temp;Humidity;BMP_temperature;BMP_pressure;BME280_temperature;BME280_humidity;BME280_pressure;Samples;Min_cycle;Max_cycle;Signal;HPM_P1;HPM_P2
2023/06/24 00:02:10;;;;;;;9.52;5.55;;;;;;;13.87;54.60;102420.25;4962062;28;20612;-69
2023/06/24 00:04:35;;;;;;;7.80;5.60;;;;;;;13.88;54.14;102427.25;4947102;28;20039;-69
2023/06/24 00:07:02;;;;;;;7.28;4.93;;;;;;;13.93;54.16;102420.06;4963304;28;20086;-69
2023/06/24 00:09:28;;;;;;;7.07;4.75;;;;;;;13.99;54.13;102420.81;4962013;28;20066;-69
2023/06/24 00:11:58;;;;;;;12.55;6.25;;;;;;;13.89;54.18;102423.69;4954183;28;20042;-69
2023/06/24 00:14:27;;;;;;;10.75;6.07;;;;;;;13.75;54.81;102430.28;4957304;28;20019;-69
2023/06/24 00:16:54;;;;;;;9.43;5.70;;;;;;;13.74;54.81;102424.13;4966859;28;20045;-68
2023/06/24 00:19:21;;;;;;;9.75;5.55;;;;;;;13.78;55.12;102423.16;4959305;28;20030;-68
2023/06/24 00:21:51;;;;;;;7.95;6.05;;;;;;;13.85;54.61;102429.09;4958649;28;20069;-67
2023/06/24 00:24:25;;;;;;;9.85;6.30;;;;;;;13.92;54.38;102423.63;4958495;28;20066;-67
2023/06/24 00:26:52;;;;;;;7.82;5.47;;;;;;;13.99;54.00;102423.44;4959671;28;20030;-67
2023/06/24 00:29:18;;;;;;;9.32;5.85;;;;;;;14.06;53.79;102424.97;4975573;28;20706;-68
2023/06/24 00:31:43;;;;;;;11.30;6.53;;;;;;;14.04;53.80;102416.28;4965471;28;20027;-67
2023/06/24 00:34:09;;;;;;;5.82;5.03;;;;;;;13.97;53.91;102412.13;4960735;28;20125;-67
2023/06/24 00:36:38;;;;;;;9.48;6.30;;;;;;;13.91;54.04;102411.38;4961275;28;20105;-67
2023/06/24 00:39:05;;;;;;;11.75;6.63;;;;;;;13.86;54.29;102413.28;4975259;28;20416;-67
2023/06/24 00:41:31;;;;;;;13.13;6.85;;;;;;;13.82;54.22;102419.53;4961774;28;20030;-67
2023/06/24 00:43:58;;;;;;;8.15;5.80;;;;;;;13.72;54.39;102413.69;4958296;28;20533;-66
2023/06/24 00:46:28;;;;;;;6.63;5.25;;;;;;;13.78;54.41;102422.28;4963076;28;20659;-67
2023/06/24 00:48:57;;;;;;;9.82;6.43;;;;;;;13.70;54.34;102422.53;4973614;28;20854;-67
2023/06/24 00:51:26;;;;;;;8.85;6.35;;;;;;;13.56;54.90;102424.63;4964161;28;20097;-66
2023/06/24 00:53:52;;;;;;;12.35;7.47;;;;;;;13.48;54.89;102420.47;4964745;28;20042;-67
2023/06/24 00:56:21;;;;;;;13.32;6.35;;;;;;;13.42;55.41;102422.41;4960163;28;20038;-67
2023/06/24 00:58:47;;;;;;;7.60;5.75;;;;;;;13.50;55.15;102416.03;4958628;28;20073;-68
2023/06/24 01:01:14;;;;;;;10.45;5.57;;;;;;;13.44;55.32;102416.19;4965013;28;20837;-68
2023/06/24 01:03:40;;;;;;;13.95;6.53;;;;;;;13.50;54.72;102416.03;4960542;28;20038;-68
2023/06/24 01:06:06;;;;;;;9.18;6.00;;;;;;;13.46;55.37;102409.13;4975272;28;20489;-65
2023/06/24 01:08:31;;;;;;;9.75;5.45;;;;;;;13.51;55.38;102412.47;4975936;28;20042;-65
2023/06/24 01:10:57;;;;;;;10.20;5.88;;;;;;;13.55;54.95;102408.03;4959580;28;20026;-65
2023/06/24 01:13:23;;;;;;;7.75;5.38;;;;;;;13.60;54.84;102410.53;4969799;28;20039;-65
2023/06/24 01:15:49;;;;;;;13.45;7.35;;;;;;;13.47;54.72;102410.88;4960630;28;20041;-65
2023/06/24 01:18:22;;;;;;;11.60;7.10;;;;;;;13.30;55.28;102405.22;4967066;28;20046;-65
2023/06/24 01:20:55;;;;;;;8.95;6.63;;;;;;;13.18;55.60;102403.75;4961549;28;20039;-65
2023/06/24 01:23:55;;;;;;;9.15;6.50;;;;;;;13.15;55.50;102411.72;4979160;28;20046;-65
2023/06/24 01:26:29;;;;;;;11.05;5.60;;;;;;;13.24;55.54;102402.75;4978446;28;20027;-65
2023/06/24 01:29:32;;;;;;;13.95;6.00;;;;;;;13.31;55.11;102406.94;4975705;28;20043;-64
2023/06/24 01:32:01;;;;;;;11.10;6.70;;;;;;;13.40;55.13;102404.03;4960559;28;20507;-67
2023/06/24 01:34:40;;;;;;;9.30;5.55;;;;;;;13.45;55.00;102402.16;4962728;28;20381;-65
2023/06/24 01:37:12;;;;;;;12.95;7.60;;;;;;;13.32;55.07;102399.00;4979631;28;22494;-65
2023/06/24 01:39:52;;;;;;;9.45;6.55;;;;;;;13.23;55.31;102406.28;4959170;28;20042;-65
2023/06/24 01:42:21;;;;;;;12.75;6.78;;;;;;;13.25;55.21;102399.22;4963252;28;20589;-65
2023/06/24 01:44:48;;;;;;;10.00;6.13;;;;;;;13.25;55.04;102404.47;4969778;28;20130;-64
2023/06/24 01:47:18;;;;;;;9.52;6.70;;;;;;;13.23;54.93;102403.66;4962742;28;20043;-65
2023/06/24 01:49:45;;;;;;;9.90;6.30;;;;;;;13.23;55.07;102395.78;4978859;28;20038;-64
2023/06/24 01:52:13;;;;;;;9.30;6.68;;;;;;;13.21;55.20;102408.09;4966552;28;20146;-64
2023/06/24 01:54:41;;;;;;;9.35;7.35;;;;;;;13.15;55.09;102403.00;4963355;28;20038;-65
2023/06/24 01:57:09;;;;;;;6.78;5.82;;;;;;;13.01;55.29;102401.59;4963725;28;20050;-64
2023/06/24 01:59:40;;;;;;;9.70;5.53;;;;;;;12.87;55.39;102398.44;4949274;28;20043;-64
2023/06/24 02:02:07;;;;;;;11.10;6.60;;;;;;;12.80;55.97;102399.50;4964194;28;20623;-65
2023/06/24 02:04:34;;;;;;;8.18;6.03;;;;;;;12.74;56.20;102404.94;4962718;28;20050;-65
2023/06/24 02:07:02;;;;;;;10.63;6.80;;;;;;;12.76;56.14;102401.38;4968356;28;20255;-65
2023/06/24 02:09:28;;;;;;;11.68;7.53;;;;;;;12.77;56.21;102397.84;4962431;28;20034;-65
2023/06/24 02:11:57;;;;;;;9.68;6.85;;;;;;;12.84;56.20;102399.41;4976066;28;20034;-65
2023/06/24 02:14:22;;;;;;;8.15;5.70;;;;;;;12.93;55.88;102402.69;4974045;28;20038;-65
2023/06/24 02:16:50;;;;;;;12.50;6.80;;;;;;;13.01;55.76;102393.72;4961334;28;20051;-64
2023/06/24 02:19:17;;;;;;;7.93;5.50;;;;;;;13.00;55.17;102389.38;4963188;28;20038;-65
2023/06/24 02:21:44;;;;;;;9.32;6.57;;;;;;;12.95;55.65;102396.50;4976412;28;20165;-65
2023/06/24 02:24:11;;;;;;;8.80;6.00;;;;;;;12.98;55.46;102393.81;4976387;28;20824;-71
2023/06/24 02:26:40;;;;;;;9.45;7.35;;;;;;;13.00;55.44;102399.84;4978447;28;20437;-65
2023/06/24 02:29:09;;;;;;;8.63;6.07;;;;;;;13.03;55.20;102399.81;4976463;28;20111;-65
2023/06/24 02:31:35;;;;;;;12.65;7.30;;;;;;;13.09;55.39;102394.41;4961522;28;20054;-65
2023/06/24 02:34:00;;;;;;;10.73;6.50;;;;;;;13.10;55.50;102398.72;4959383;28;20030;-64
2023/06/24 02:36:26;;;;;;;6.93;5.35;;;;;;;13.10;55.25;102401.34;4970796;28;20478;-65
2023/06/24 02:38:51;;;;;;;8.10;6.47;;;;;;;13.07;55.38;102401.44;4964220;28;20046;-66
2023/06/24 02:41:17;;;;;;;11.07;7.15;;;;;;;12.90;55.15;102401.00;4962796;28;20034;-65
2023/06/24 02:43:42;;;;;;;14.70;7.80;;;;;;;12.70;55.65;102402.38;4978100;28;20069;-65
2023/06/24 02:46:10;;;;;;;12.10;7.65;;;;;;;12.58;55.77;102407.00;4963681;28;20026;-66
2023/06/24 02:48:38;;;;;;;10.93;7.65;;;;;;;12.55;56.15;102402.72;4963770;28;20045;-67
2023/06/24 02:51:07;;;;;;;10.30;6.88;;;;;;;12.64;56.25;102407.72;4964771;28;20069;-66
2023/06/24 02:53:33;;;;;;;11.55;8.32;;;;;;;12.65;56.33;102398.97;4977333;28;20038;-66
2023/06/24 02:56:04;;;;;;;11.63;6.45;;;;;;;12.65;56.20;102398.13;4974481;28;20027;-65
2023/06/24 02:58:31;;;;;;;11.43;7.55;;;;;;;12.64;56.28;102401.63;4963267;28;20130;-66
2023/06/24 03:01:03;;;;;;;10.85;7.28;;;;;;;12.63;56.40;102394.66;4959803;28;20049;-65
2023/06/24 03:03:30;;;;;;;13.45;7.68;;;;;;;12.70;56.20;102407.63;4954670;28;20491;-65
2023/06/24 03:05:57;;;;;;;11.57;7.80;;;;;;;12.73;56.19;102390.06;4959540;28;20031;-66
2023/06/24 03:08:26;;;;;;;13.85;7.55;;;;;;;12.63;56.19;102390.28;4976662;28;20056;-70
2023/06/24 03:10:58;;;;;;;10.90;7.10;;;;;;;12.52;56.18;102397.56;4943905;28;20034;-68
2023/06/24 03:13:26;;;;;;;12.23;6.78;;;;;;;12.45;56.45;102398.59;4964911;28;20031;-65
2023/06/24 03:16:12;;;;;;;11.93;6.82;;;;;;;12.43;56.58;102403.88;4971023;28;20035;-67
2023/06/24 03:18:42;;;;;;;8.55;6.57;;;;;;;12.44;56.47;102399.47;4962603;28;20638;-69
2023/06/24 03:21:09;;;;;;;10.90;7.00;;;;;;;12.50;56.45;102410.69;4964715;28;20304;-72
2023/06/24 03:23:35;;;;;;;11.27;7.60;;;;;;;12.56;56.22;102414.06;4963503;28;20043;-67
2023/06/24 03:26:00;;;;;;;8.77;5.63;;;;;;;12.69;55.97;102405.91;4978203;28;20034;-68
2023/06/24 03:28:26;;;;;;;10.85;6.40;;;;;;;12.79;55.96;102408.28;4956023;28;20062;-67
2023/06/24 03:31:02;;;;;;;7.95;6.38;;;;;;;12.69;55.98;102415.50;4961968;28;20038;-68
2023/06/24 03:33:27;;;;;;;8.68;6.78;;;;;;;12.72;55.98;102414.59;4957747;28;20042;-68
2023/06/24 03:35:56;;;;;;;6.97;5.38;;;;;;;12.79;56.17;102413.53;4963178;28;20030;-69
2023/06/24 03:38:27;;;;;;;8.48;5.85;;;;;;;12.74;55.94;102418.06;4949906;28;20046;-67
2023/06/24 03:40:53;;;;;;;8.95;6.63;;;;;;;12.63;56.08;102421.75;4968378;28;20116;-67
2023/06/24 03:43:19;;;;;;;8.20;6.57;;;;;;;12.53;56.58;102420.25;4957954;28;20046;-68
2023/06/24 03:45:44;;;;;;;9.68;5.97;;;;;;;12.65;56.70;102425.22;4977693;28;20037;-68
2023/06/24 03:48:10;;;;;;;9.52;6.10;;;;;;;12.75;56.29;102419.75;4965720;28;20073;-71
2023/06/24 03:50:38;;;;;;;10.40;6.53;;;;;;;12.96;55.93;102419.25;4957737;28;22535;-67
2023/06/24 03:53:03;;;;;;;11.05;7.50;;;;;;;12.96;56.15;102419.25;4964310;28;20062;-67
2023/06/24 03:55:29;;;;;;;13.13;7.57;;;;;;;12.85;55.89;102419.50;4967501;28;20518;-67
2023/06/24 03:57:57;;;;;;;9.77;6.32;;;;;;;12.82;56.10;102416.09;4962061;28;20042;-67
2023/06/24 04:00:24;;;;;;;9.90;6.20;;;;;;;12.82;56.44;102426.56;4970728;28;20034;-73
2023/06/24 04:02:52;;;;;;;9.60;7.03;;;;;;;12.87;56.37;102425.56;4968511;28;20058;-71
2023/06/24 04:05:17;;;;;;;9.23;7.40;;;;;;;12.97;56.13;102426.19;4962719;28;20038;-73
2023/06/24 04:07:46;;;;;;;11.77;6.85;;;;;;;13.05;55.94;102424.25;4975088;28;20035;-74
2023/06/24 04:10:12;;;;;;;9.07;6.53;;;;;;;13.11;55.98;102428.47;4969849;28;20297;-71
2023/06/24 04:12:38;;;;;;;10.50;6.72;;;;;;;13.11;55.87;102431.09;4971319;28;20035;-73
2023/06/24 04:15:05;;;;;;;12.93;7.68;;;;;;;13.13;55.80;102434.53;4952180;28;20696;-70
2023/06/24 04:17:32;;;;;;;10.55;7.15;;;;;;;13.17;55.73;102427.44;4975309;28;20038;-69
2023/06/24 04:19:59;;;;;;;10.75;7.60;;;;;;;13.18;55.99;102418.66;4969112;28;20119;-69
2023/06/24 04:22:25;;;;;;;9.98;7.55;;;;;;;13.27;55.97;102423.66;4958171;28;20046;-69
2023/06/24 04:24:55;;;;;;;8.52;6.13;;;;;;;13.49;55.80;102416.91;4964117;28;20038;-74
2023/06/24 04:27:22;;;;;;;14.77;8.77;;;;;;;13.52;55.34;102421.25;4961655;28;20050;-71
2023/06/24 04:29:48;;;;;;;9.13;7.65;;;;;;;13.56;55.63;102414.97;4977138;28;20451;-69
2023/06/24 04:32:13;;;;;;;14.00;8.23;;;;;;;13.66;55.34;102416.47;4961727;28;20452;-72
2023/06/24 04:34:40;;;;;;;12.13;8.07;;;;;;;13.76;55.03;102421.47;4954565;28;20157;-69
2023/06/24 04:37:08;;;;;;;11.05;7.70;;;;;;;13.90;55.23;102414.06;4968432;28;20027;-69
2023/06/24 04:39:33;;;;;;;12.52;7.03;;;;;;;14.12;55.13;102409.88;4974229;28;20431;-71
2023/06/24 04:41:59;;;;;;;18.30;8.88;;;;;;;14.26;54.08;102412.06;4968118;28;20427;-71
2023/06/24 04:44:25;;;;;;;15.73;8.48;;;;;;;14.37;54.30;102409.13;4958484;28;20070;-69
2023/06/24 04:46:52;;;;;;;14.27;8.68;;;;;;;14.54;54.00;102416.47;4962778;28;20054;-70
2023/06/24 04:49:18;;;;;;;13.70;8.48;;;;;;;14.76;53.88;102414.84;4963824;28;20043;-67
2023/06/24 04:51:44;;;;;;;12.38;8.07;;;;;;;14.59;53.78;102419.84;4962223;28;20049;-66
2023/06/24 04:54:09;;;;;;;13.82;9.93;;;;;;;14.66;53.71;102426.63;4964363;28;20141;-68
2023/06/24 04:56:37;;;;;;;14.95;8.65;;;;;;;14.89;53.84;102422.34;4962504;28;20126;-70
2023/06/24 04:59:03;;;;;;;10.13;7.35;;;;;;;15.16;53.27;102421.41;4965236;28;20080;-67
2023/06/24 05:01:28;;;;;;;15.23;9.18;;;;;;;15.29;52.60;102407.84;4963156;28;20503;-67
2023/06/24 05:03:54;;;;;;;11.48;7.60;;;;;;;15.47;52.31;102394.00;4964094;28;20089;-65
2023/06/24 05:06:19;;;;;;;17.10;7.78;;;;;;;15.87;51.67;102392.50;4962447;28;20047;-65
2023/06/24 05:08:45;;;;;;;12.35;8.50;;;;;;;16.27;51.37;102390.13;4980644;28;20053;-70
2023/06/24 05:11:10;;;;;;;9.27;6.53;;;;;;;17.41;48.38;102394.09;4964455;28;20504;-72
2023/06/24 05:13:37;;;;;;;11.25;6.43;;;;;;;18.45;45.19;102385.69;4962642;28;20038;-70
2023/06/24 05:16:04;;;;;;;11.43;7.00;;;;;;;19.51;43.81;102389.03;4981169;28;20043;-73
2023/06/24 05:18:29;;;;;;;11.48;7.05;;;;;;;20.10;41.61;102386.72;4960904;28;20038;-73
2023/06/24 05:20:55;;;;;;;13.30;7.10;;;;;;;20.67;40.06;102393.19;4980028;28;20045;-73
2023/06/24 05:23:21;;;;;;;8.30;4.60;;;;;;;21.09;40.42;102405.75;4962230;28;20045;-73
2023/06/24 05:25:46;;;;;;;9.35;6.07;;;;;;;21.38;39.83;102404.88;4965369;28;20641;-73
2023/06/24 05:28:12;;;;;;;7.78;5.82;;;;;;;22.17;38.18;102413.16;4962776;28;20511;-73
2023/06/24 05:30:38;;;;;;;9.73;5.85;;;;;;;22.77;36.80;102409.19;4962115;28;20062;-73
2023/06/24 05:33:03;;;;;;;7.45;5.13;;;;;;;23.00;35.57;102425.44;4978876;28;20512;-74
2023/06/24 05:35:29;;;;;;;7.63;5.72;;;;;;;23.13;35.73;102418.28;4977735;28;20046;-73
2023/06/24 05:37:54;;;;;;;7.82;5.45;;;;;;;23.52;34.89;102424.50;4967791;28;20054;-74
2023/06/24 05:40:20;;;;;;;8.25;4.40;;;;;;;24.47;34.18;102424.72;4966800;28;20549;-74
2023/06/24 05:42:45;;;;;;;5.30;4.40;;;;;;;25.17;32.97;102421.13;4963471;28;20039;-74
2023/06/24 05:45:11;;;;;;;9.07;5.38;;;;;;;24.60;32.64;102438.00;4965818;28;20046;-73
2023/06/24 05:47:37;;;;;;;11.40;5.80;;;;;;;20.97;38.78;102434.84;4960814;28;20038;-72
2023/06/24 05:50:04;;;;;;;13.18;6.50;;;;;;;18.99;43.36;102443.94;4966052;28;20527;-73
2023/06/24 05:52:29;;;;;;;12.35;5.80;;;;;;;18.10;45.06;102440.34;4961214;28;20046;-73
2023/06/24 05:54:55;;;;;;;7.47;6.10;;;;;;;17.97;46.52;102437.41;4963845;28;20034;-73
2023/06/24 05:57:21;;;;;;;9.77;6.82;;;;;;;17.65;47.10;102439.75;4975611;28;20066;-73
2023/06/24 05:59:46;;;;;;;13.13;7.30;;;;;;;17.55;48.07;102441.94;4978024;28;20095;-72
2023/06/24 06:02:12;;;;;;;9.70;5.70;;;;;;;18.13;46.58;102429.59;4964411;28;20106;-72
2023/06/24 06:04:38;;;;;;;7.65;5.68;;;;;;;20.79;43.22;102421.69;4977631;28;20034;-74
2023/06/24 06:07:04;;;;;;;11.43;7.50;;;;;;;22.87;36.75;102417.41;4965983;28;20043;-73
2023/06/24 06:09:29;;;;;;;8.70;6.20;;;;;;;23.07;35.38;102412.53;4967646;28;20045;-73
2023/06/24 06:11:55;;;;;;;7.90;5.40;;;;;;;21.98;36.71;102413.50;4970136;28;20080;-73
2023/06/24 06:14:20;;;;;;;6.85;4.65;;;;;;;21.10;38.39;102409.25;4968538;28;20038;-74
2023/06/24 06:16:47;;;;;;;8.88;5.38;;;;;;;20.67;39.88;102402.03;4965594;28;20038;-73
2023/06/24 06:19:12;;;;;;;7.72;5.40;;;;;;;21.51;38.66;102403.19;4964956;28;20946;-73
2023/06/24 06:21:38;;;;;;;7.53;5.10;;;;;;;22.26;37.55;102405.53;4966314;28;20046;-74
2023/06/24 06:24:04;;;;;;;8.25;5.05;;;;;;;22.12;37.65;102411.78;4961621;28;20050;-74
2023/06/24 06:26:30;;;;;;;8.45;4.85;;;;;;;21.68;37.63;102408.31;4960829;28;20484;-73
2023/06/24 06:28:56;;;;;;;7.00;4.90;;;;;;;21.84;37.46;102416.16;4967325;28;20034;-74
2023/06/24 06:31:22;;;;;;;10.18;4.70;;;;;;;21.99;37.41;102411.69;4970369;28;20505;-74
2023/06/24 06:33:48;;;;;;;6.50;3.97;;;;;;;23.58;33.35;102412.50;4976939;28;20046;-72
2023/06/24 06:36:13;;;;;;;5.78;3.83;;;;;;;25.05;31.76;102412.25;4965468;28;20041;-73
2023/06/24 06:38:40;;;;;;;7.03;4.00;;;;;;;26.13;29.55;102403.63;4963090;28;20055;-74
2023/06/24 06:41:06;;;;;;;5.75;3.60;;;;;;;26.68;29.27;102408.91;4963075;28;20030;-72
2023/06/24 06:43:33;;;;;;;14.50;3.55;;;;;;;25.63;30.58;102405.94;4960855;28;20038;-73
2023/06/24 06:45:58;;;;;;;8.43;3.78;;;;;;;24.53;32.09;102400.22;4971528;28;20046;-73
2023/06/24 06:48:24;;;;;;;6.10;4.03;;;;;;;23.70;32.54;102408.97;4966649;28;20066;-74
2023/06/24 06:50:52;;;;;;;6.13;3.55;;;;;;;23.59;33.62;102406.22;4962858;28;20097;-74
2023/06/24 06:53:17;;;;;;;4.60;3.88;;;;;;;23.45;33.46;102407.19;4969619;28;20035;-73
2023/06/24 06:55:43;;;;;;;6.15;3.58;;;;;;;23.60;34.00;102405.25;4960188;28;20027;-73
2023/06/24 06:58:09;;;;;;;6.00;4.40;;;;;;;24.36;31.86;102409.47;4967193;28;20093;-74
2023/06/24 07:00:34;;;;;;;8.27;2.80;;;;;;;25.41;29.48;102402.28;4965399;28;20030;-73
2023/06/24 07:03:00;;;;;;;5.45;2.80;;;;;;;27.43;26.73;102401.50;4963376;28;20382;-74
2023/06/24 07:05:25;;;;;;;4.32;2.25;;;;;;;27.56;26.41;102403.97;4964582;28;20388;-74
2023/06/24 07:07:51;;;;;;;8.88;3.40;;;;;;;26.15;28.20;102412.41;4961005;28;20504;-74
2023/06/24 07:10:17;;;;;;;4.85;3.45;;;;;;;26.22;28.28;102402.03;4963372;28;20523;-73
2023/06/24 07:12:43;;;;;;;5.60;3.05;;;;;;;25.32;29.23;102403.00;4964712;28;20530;-74
2023/06/24 07:15:10;;;;;;;4.35;3.42;;;;;;;24.98;29.60;102411.03;4962479;28;20035;-73
2023/06/24 07:17:35;;;;;;;6.53;3.38;;;;;;;25.39;29.37;102406.06;4964436;28;20046;-73
2023/06/24 07:20:01;;;;;;;4.75;4.03;;;;;;;25.47;29.10;102404.47;4962588;28;20108;-75
2023/06/24 07:22:26;;;;;;;3.45;3.00;;;;;;;25.30;29.11;102415.66;4956419;28;20109;-73
2023/06/24 07:24:52;;;;;;;3.97;2.83;;;;;;;24.84;29.49;102411.22;4960740;28;22672;-74
2023/06/24 07:27:17;;;;;;;6.45;2.28;;;;;;;25.48;29.16;102403.47;4954614;28;20050;-74
2023/06/24 07:29:43;;;;;;;3.33;2.38;;;;;;;26.62;27.27;102404.91;4962232;28;20030;-74
2023/06/24 07:32:08;;;;;;;5.43;3.05;;;;;;;26.79;27.30;102405.31;4968278;28;20551;-73
2023/06/24 07:34:34;;;;;;;5.22;2.65;;;;;;;26.90;26.30;102411.44;4965525;28;21731;-74
2023/06/24 07:36:59;;;;;;;4.45;2.90;;;;;;;27.33;26.14;102409.53;4965514;28;20410;-73
2023/06/24 07:39:25;;;;;;;2.60;1.98;;;;;;;27.16;26.65;102402.13;4967399;28;20596;-75
2023/06/24 07:41:50;;;;;;;5.18;3.17;;;;;;;27.45;25.82;102397.72;4963140;28;20042;-75
2023/06/24 07:44:15;;;;;;;4.00;2.60;;;;;;;27.34;26.16;102395.16;4962755;28;20451;-74
2023/06/24 07:46:41;;;;;;;5.18;2.72;;;;;;;27.96;25.20;102400.38;4969462;28;20521;-73
2023/06/24 07:49:06;;;;;;;10.55;2.53;;;;;;;25.05;29.30;102401.53;4962564;28;20054;-74
2023/06/24 07:51:34;;;;;;;4.47;3.58;;;;;;;25.64;27.96;102397.81;4959443;28;20529;-75
2023/06/24 07:54:00;;;;;;;5.60;2.70;;;;;;;26.25;27.22;102396.44;4979119;28;20042;-74
2023/06/24 07:56:26;;;;;;;7.90;3.15;;;;;;;28.41;24.61;102389.09;4967379;28;20058;-75
2023/06/24 07:58:51;;;;;;;3.30;3.00;;;;;;;27.20;25.59;102398.19;4952750;28;20124;-73
2023/06/24 08:01:17;;;;;;;4.68;3.28;;;;;;;30.20;23.01;102392.41;4955731;28;20500;-74
2023/06/24 08:03:42;;;;;;;4.35;2.42;;;;;;;30.76;22.32;102391.16;4954535;28;20042;-74
2023/06/24 08:06:07;;;;;;;3.28;2.20;;;;;;;30.92;22.18;102394.97;4963590;28;20368;-74
2023/06/24 08:08:33;;;;;;;3.67;2.85;;;;;;;31.36;21.21;102381.31;4964965;28;20050;-74
2023/06/24 08:10:59;;;;;;;5.20;2.92;;;;;;;30.51;21.52;102390.13;4963171;28;20030;-74
2023/06/24 08:13:24;;;;;;;5.25;2.95;;;;;;;31.13;21.26;102381.06;4956327;28;20047;-73
2023/06/24 08:15:49;;;;;;;4.80;2.85;;;;;;;30.06;22.90;102387.53;4961135;28;20385;-75
2023/06/24 08:18:15;;;;;;;3.40;3.10;;;;;;;30.43;22.08;102378.44;4958708;28;20074;-74
2023/06/24 08:20:40;;;;;;;5.03;2.97;;;;;;;30.33;22.81;102379.38;4974642;28;20034;-75
2023/06/24 08:23:06;;;;;;;3.97;3.22;;;;;;;30.33;22.78;102374.00;4964160;28;20550;-74
2023/06/24 08:25:32;;;;;;;6.30;3.17;;;;;;;31.50;21.41;102380.72;4976866;28;20750;-75
2023/06/24 08:27:57;;;;;;;4.18;3.03;;;;;;;32.43;19.81;102369.69;4976850;28;20560;-74
2023/06/24 08:30:22;;;;;;;4.50;3.50;;;;;;;30.63;21.48;102377.25;4949015;28;20074;-74
2023/06/24 08:32:48;;;;;;;4.40;2.97;;;;;;;31.76;20.31;102377.91;4961321;28;20050;-73
2023/06/24 08:35:13;;;;;;;5.07;3.10;;;;;;;32.32;20.22;102367.31;4964915;28;20640;-75
2023/06/24 08:37:39;;;;;;;4.82;3.53;;;;;;;30.54;21.97;102381.72;4967106;28;20045;-75
2023/06/24 08:40:05;;;;;;;5.60;2.67;;;;;;;30.72;21.54;102372.75;4979293;28;20061;-74
2023/06/24 08:42:32;;;;;;;3.17;2.78;;;;;;;31.68;20.68;102375.19;4960404;28;20047;-72
2023/06/24 08:44:58;;;;;;;7.03;3.85;;;;;;;30.82;21.14;102375.31;4962061;28;20039;-72
2023/06/24 08:47:24;;;;;;;4.35;3.60;;;;;;;32.29;19.88;102374.91;4962999;28;20043;-73
2023/06/24 08:49:58;;;;;;;3.30;3.10;;;;;;;31.38;21.07;102363.97;4961849;28;20040;-72
2023/06/24 08:52:29;;;;;;;5.68;4.20;;;;;;;33.02;19.09;102366.66;4961626;28;20530;-72
2023/06/24 08:54:57;;;;;;;3.97;3.03;;;;;;;32.69;20.35;102363.19;4959308;28;20030;-72
2023/06/24 08:57:23;;;;;;;4.43;2.55;;;;;;;33.35;19.35;102358.38;4962608;28;20141;-71
2023/06/24 08:59:49;;;;;;;7.45;4.00;;;;;;;32.81;19.98;102355.50;4961046;28;20049;-72
2023/06/24 09:02:14;;;;;;;9.30;3.92;;;;;;;30.99;21.31;102352.81;4961834;28;20049;-72
2023/06/24 09:04:40;;;;;;;5.93;3.67;;;;;;;28.29;24.73;102365.03;4961575;28;20462;-71
2023/06/24 09:07:06;;;;;;;5.28;4.13;;;;;;;27.60;25.43;102365.09;4969929;28;21080;-71
2023/06/24 09:09:32;;;;;;;7.28;3.72;;;;;;;28.10;25.07;102365.88;4962649;28;20039;-72
2023/06/24 09:11:59;;;;;;;6.85;3.90;;;;;;;27.86;26.00;102360.09;4967594;28;20038;-71
2023/06/24 09:14:26;;;;;;;6.97;4.50;;;;;;;27.02;26.40;102361.22;4962493;28;20049;-72
2023/06/24 09:16:56;;;;;;;6.70;4.13;;;;;;;27.77;26.19;102359.09;4975806;28;20055;-71
2023/06/24 09:19:23;;;;;;;9.55;4.38;;;;;;;29.65;24.17;102349.44;4963548;28;20456;-71
2023/06/24 09:21:50;;;;;;;6.25;4.22;;;;;;;29.78;24.11;102357.97;4957942;28;20570;-71
2023/06/24 09:24:16;;;;;;;5.15;3.33;;;;;;;30.03;24.30;102359.03;4964304;28;20030;-71
2023/06/24 09:26:45;;;;;;;8.73;4.20;;;;;;;29.79;23.55;102354.25;4958308;28;20480;-71
2023/06/24 09:29:12;;;;;;;4.28;3.35;;;;;;;29.29;25.25;102346.66;4964141;28;20062;-72
2023/06/24 09:31:47;;;;;;;5.90;4.18;;;;;;;28.03;25.53;102358.50;4958790;28;20049;-74
2023/06/24 09:34:14;;;;;;;5.45;3.90;;;;;;;28.74;25.01;102350.94;4959351;28;20081;-71
2023/06/24 09:36:45;;;;;;;6.63;3.33;;;;;;;27.96;26.06;102343.97;4969812;28;20114;-73
2023/06/24 09:39:10;;;;;;;7.80;3.60;;;;;;;29.22;24.04;102350.94;4977793;28;20051;-72
2023/06/24 09:41:36;;;;;;;7.63;3.55;;;;;;;29.36;24.43;102339.66;4960492;28;20761;-73
2023/06/24 09:44:02;;;;;;;5.70;3.35;;;;;;;29.49;24.32;102332.06;4958928;28;20094;-72
2023/06/24 09:46:30;;;;;;;5.10;4.03;;;;;;;29.82;24.73;102336.94;4966728;28;20070;-74
2023/06/24 09:48:55;;;;;;;4.80;3.90;;;;;;;28.79;25.61;102337.09;4959659;28;20047;-72
2023/06/24 09:51:23;;;;;;;4.45;3.53;;;;;;;28.24;25.79;102347.66;4963891;28;20073;-72
2023/06/24 09:53:49;;;;;;;7.20;4.10;;;;;;;27.58;26.21;102342.91;4959948;28;20035;-72
2023/06/24 09:56:16;;;;;;;4.43;3.92;;;;;;;27.68;27.08;102341.97;4967412;28;20038;-72
2023/06/24 09:58:44;;;;;;;6.95;3.53;;;;;;;27.81;26.98;102346.19;4961321;28;20066;-73
2023/06/24 10:01:09;;;;;;;9.02;3.88;;;;;;;27.74;26.52;102343.22;4978143;28;20047;-73
2023/06/24 10:03:36;;;;;;;4.50;4.00;;;;;;;27.61;25.93;102337.25;4960930;28;20101;-72
2023/06/24 10:06:03;;;;;;;5.13;4.10;;;;;;;26.88;27.72;102340.97;4960712;28;20042;-72
2023/06/24 10:08:31;;;;;;;3.47;2.97;;;;;;;27.61;27.11;102331.88;4962239;28;20450;-73
2023/06/24 10:10:58;;;;;;;5.57;3.38;;;;;;;27.40;27.64;102329.31;4956971;28;20622;-73
2023/06/24 10:13:25;;;;;;;10.63;3.83;;;;;;;27.09;27.53;102332.88;4960505;28;20073;-72
2023/06/24 10:15:50;;;;;;;4.45;4.05;;;;;;;27.92;26.81;102325.44;4962088;28;20030;-73
2023/06/24 10:18:28;;;;;;;8.07;4.45;;;;;;;27.56;26.90;102328.78;4976320;28;20507;-72
2023/06/24 10:20:53;;;;;;;6.30;3.75;;;;;;;27.59;27.52;102328.50;4956071;28;21033;-73
2023/06/24 10:23:19;;;;;;;4.88;3.47;;;;;;;28.21;26.71;102321.91;4962103;28;20042;-74
2023/06/24 10:25:47;;;;;;;4.15;2.88;;;;;;;29.17;24.82;102319.06;4958290;28;20038;-73
2023/06/24 10:28:13;;;;;;;2.95;2.72;;;;;;;29.48;24.45;102319.56;4960898;28;20694;-73
2023/06/24 10:30:38;;;;;;;5.32;2.65;;;;;;;28.64;24.69;102314.34;4958587;28;20034;-72
2023/06/24 10:33:10;;;;;;;6.78;2.88;;;;;;;28.42;24.35;102310.13;4973042;28;20592;-73
2023/06/24 10:35:42;;;;;;;4.32;2.50;;;;;;;28.98;24.87;102313.78;4961102;28;20026;-72
2023/06/24 10:38:10;;;;;;;4.38;3.13;;;;;;;27.17;26.43;102320.63;4960463;28;20355;-73
2023/06/24 10:40:42;;;;;;;3.22;2.92;;;;;;;27.17;26.71;102326.00;4973944;28;20128;-72
2023/06/24 10:43:27;;;;;;;2.95;2.65;;;;;;;27.64;25.79;102315.53;4962696;28;20542;-73
2023/06/24 10:45:55;;;;;;;8.60;3.75;;;;;;;27.56;25.61;102318.88;4959528;28;20578;-72
2023/06/24 10:48:20;;;;;;;7.78;3.08;;;;;;;28.49;25.62;102316.63;4962733;28;20049;-72
2023/06/24 10:50:47;;;;;;;4.00;3.55;;;;;;;28.04;25.29;102306.50;4974353;28;20435;-72
2023/06/24 10:53:13;;;;;;;4.50;2.78;;;;;;;28.80;25.41;102303.78;4965571;28;20071;-73
2023/06/24 10:55:39;;;;;;;9.35;3.10;;;;;;;28.89;25.30;102307.44;4973875;28;20122;-72
2023/06/24 10:58:12;;;;;;;6.28;2.95;;;;;;;28.30;25.58;102312.13;4963170;28;20611;-73
2023/06/24 11:00:39;;;;;;;3.28;2.45;;;;;;;29.33;24.94;102310.34;4965380;28;20443;-74
2023/06/24 11:03:12;;;;;;;4.00;2.90;;;;;;;30.32;24.01;102312.94;4962383;28;20062;-73
2023/06/24 11:05:42;;;;;;;5.10;3.55;;;;;;;30.13;23.28;102308.63;4957186;28;20061;-72
2023/06/24 11:08:09;;;;;;;4.47;3.40;;;;;;;28.92;24.70;102299.06;4966534;28;20062;-74
2023/06/24 11:10:48;;;;;;;4.95;3.08;;;;;;;28.60;25.64;102303.00;4957365;28;22132;-73
2023/06/24 11:13:14;;;;;;;3.72;3.10;;;;;;;29.21;24.74;102306.16;4959946;28;20149;-73
2023/06/24 11:15:43;;;;;;;10.68;3.60;;;;;;;29.68;24.20;102306.00;4958869;28;20459;-75
2023/06/24 11:18:10;;;;;;;10.68;8.65;;;;;;;29.31;24.87;102301.56;4961541;28;20039;-72
2023/06/24 11:20:39;;;;;;;7.20;3.17;;;;;;;29.91;24.65;102299.16;4972384;28;20042;-73
2023/06/24 11:23:10;;;;;;;4.97;3.05;;;;;;;29.95;23.59;102297.84;4955455;28;20148;-73
2023/06/24 11:25:39;;;;;;;;;;;;;;;30.67;23.40;102307.59;4955266;28;20038;-73